sensor_id;sensor_type;location;lat;lon;timestamp;temperature;humidity
57843;DHT22;43673;51.058;3.734;2022-07-06T00:01:42;16.90;99.90
57843;DHT22;43673;51.058;3.734;2022-07-06T00:04:08;16.90;99.90
57843;DHT22;43673;51.058;3.734;2022-07-06T00:06:34;16.80;99.90
57843;DHT22;43673;51.058;3.734;2022-07-06T00:09:00;16.80;99.90
57843;DHT22;43673;51.058;3.734;2022-07-06T00:11:26;16.80;99.90
57843;DHT22;43673;51.058;3.734;2022-07-06T00:13:52;16.90;99.90
57843;DHT22;43673;51.058;3.734;2022-07-06T00:16:18;16.90;99.90
57843;DHT22;43673;51.058;3.734;2022-07-06T00:18:44;16.80;99.90
57843;DHT22;43673;51.058;3.734;2022-07-06T00:21:10;16.80;99.90
57843;DHT22;43673;51.058;3.734;2022-07-06T00:23:36;16.80;99.90
57843;DHT22;43673;51.058;3.734;2022-07-06T00:28:54;16.70;99.90
57843;DHT22;43673;51.058;3.734;2022-07-06T00:34:26;16.80;99.90
57843;DHT22;43673;51.058;3.734;2022-07-06T00:37:27;16.70;99.90
57843;DHT22;43673;51.058;3.734;2022-07-06T00:40:15;16.70;99.90
57843;DHT22;43673;51.058;3.734;2022-07-06T00:42:46;16.70;99.90
57843;DHT22;43673;51.058;3.734;2022-07-06T00:45:16;16.80;99.90
57843;DHT22;43673;51.058;3.734;2022-07-06T00:47:42;16.80;99.90
57843;DHT22;43673;51.058;3.734;2022-07-06T00:50:11;16.90;99.90
57843;DHT22;43673;51.058;3.734;2022-07-06T00:52:45;16.90;99.90
57843;DHT22;43673;51.058;3.734;2022-07-06T00:55:12;16.90;99.90
57843;DHT22;43673;51.058;3.734;2022-07-06T00:57:40;16.90;99.90
57843;DHT22;43673;51.058;3.734;2022-07-06T01:00:10;17.00;99.90
57843;DHT22;43673;51.058;3.734;2022-07-06T01:02:36;17.00;99.90
57843;DHT22;43673;51.058;3.734;2022-07-06T01:05:07;17.10;99.90
57843;DHT22;43673;51.058;3.734;2022-07-06T01:07:33;17.10;99.90
57843;DHT22;43673;51.058;3.734;2022-07-06T01:09:59;17.20;99.90
57843;DHT22;43673;51.058;3.734;2022-07-06T01:12:26;17.30;99.90
57843;DHT22;43673;51.058;3.734;2022-07-06T01:14:52;17.30;99.90
57843;DHT22;43673;51.058;3.734;2022-07-06T01:17:18;17.30;99.90
57843;DHT22;43673;51.058;3.734;2022-07-06T01:19:44;17.30;99.90
57843;DHT22;43673;51.058;3.734;2022-07-06T01:22:10;17.30;99.90
57843;DHT22;43673;51.058;3.734;2022-07-06T01:24:36;17.30;99.90
57843;DHT22;43673;51.058;3.734;2022-07-06T01:27:06;17.40;99.90
57843;DHT22;43673;51.058;3.734;2022-07-06T01:29:32;17.40;99.90
57843;DHT22;43673;51.058;3.734;2022-07-06T01:31:58;17.30;99.90
57843;DHT22;43673;51.058;3.734;2022-07-06T01:34:24;17.30;99.90
57843;DHT22;43673;51.058;3.734;2022-07-06T01:36:49;17.20;99.90
57843;DHT22;43673;51.058;3.734;2022-07-06T01:39:15;17.10;99.90
57843;DHT22;43673;51.058;3.734;2022-07-06T01:41:41;17.00;99.90
57843;DHT22;43673;51.058;3.734;2022-07-06T01:44:07;17.00;99.90
57843;DHT22;43673;51.058;3.734;2022-07-06T01:46:33;17.00;99.90
57843;DHT22;43673;51.058;3.734;2022-07-06T01:48:59;17.00;99.90
57843;DHT22;43673;51.058;3.734;2022-07-06T01:51:25;16.90;99.90
57843;DHT22;43673;51.058;3.734;2022-07-06T01:53:51;16.90;99.90
57843;DHT22;43673;51.058;3.734;2022-07-06T01:56:18;16.80;99.90
57843;DHT22;43673;51.058;3.734;2022-07-06T01:58:45;16.80;99.90
57843;DHT22;43673;51.058;3.734;2022-07-06T02:01:16;16.80;99.90
57843;DHT22;43673;51.058;3.734;2022-07-06T02:03:42;16.80;99.90
57843;DHT22;43673;51.058;3.734;2022-07-06T02:06:08;16.70;99.90
57843;DHT22;43673;51.058;3.734;2022-07-06T02:08:35;16.70;99.90
57843;DHT22;43673;51.058;3.734;2022-07-06T02:11:02;16.70;99.90
57843;DHT22;43673;51.058;3.734;2022-07-06T02:13:28;16.80;99.90
57843;DHT22;43673;51.058;3.734;2022-07-06T02:15:54;16.70;99.90
57843;DHT22;43673;51.058;3.734;2022-07-06T02:18:19;16.70;99.90
57843;DHT22;43673;51.058;3.734;2022-07-06T02:20:46;16.70;99.90
57843;DHT22;43673;51.058;3.734;2022-07-06T02:23:11;16.70;99.90
57843;DHT22;43673;51.058;3.734;2022-07-06T02:25:37;16.60;99.90
57843;DHT22;43673;51.058;3.734;2022-07-06T02:28:03;16.60;99.90
57843;DHT22;43673;51.058;3.734;2022-07-06T02:30:29;16.60;99.90
57843;DHT22;43673;51.058;3.734;2022-07-06T02:32:54;16.60;99.90
57843;DHT22;43673;51.058;3.734;2022-07-06T02:35:20;16.50;99.90
57843;DHT22;43673;51.058;3.734;2022-07-06T02:37:46;16.50;99.90
57843;DHT22;43673;51.058;3.734;2022-07-06T02:40:12;16.50;99.90
57843;DHT22;43673;51.058;3.734;2022-07-06T02:42:38;16.50;99.90
57843;DHT22;43673;51.058;3.734;2022-07-06T02:45:05;16.50;99.90
57843;DHT22;43673;51.058;3.734;2022-07-06T02:47:31;16.40;99.90
57843;DHT22;43673;51.058;3.734;2022-07-06T02:49:56;16.30;99.90
57843;DHT22;43673;51.058;3.734;2022-07-06T02:52:22;16.30;99.90
57843;DHT22;43673;51.058;3.734;2022-07-06T02:54:48;16.30;99.90
57843;DHT22;43673;51.058;3.734;2022-07-06T02:57:14;16.30;99.90
57843;DHT22;43673;51.058;3.734;2022-07-06T02:59:40;16.20;99.90
57843;DHT22;43673;51.058;3.734;2022-07-06T03:02:06;16.20;99.90
57843;DHT22;43673;51.058;3.734;2022-07-06T03:04:33;16.20;99.90
57843;DHT22;43673;51.058;3.734;2022-07-06T03:06:59;16.20;99.90
57843;DHT22;43673;51.058;3.734;2022-07-06T03:09:24;16.20;99.90
57843;DHT22;43673;51.058;3.734;2022-07-06T03:11:50;16.10;99.90
57843;DHT22;43673;51.058;3.734;2022-07-06T03:14:16;16.10;99.90
57843;DHT22;43673;51.058;3.734;2022-07-06T03:16:42;16.10;99.90
57843;DHT22;43673;51.058;3.734;2022-07-06T03:19:07;16.10;99.90
57843;DHT22;43673;51.058;3.734;2022-07-06T03:21:33;16.10;99.90
57843;DHT22;43673;51.058;3.734;2022-07-06T03:23:59;16.00;99.90
57843;DHT22;43673;51.058;3.734;2022-07-06T03:26:24;16.00;99.90
57843;DHT22;43673;51.058;3.734;2022-07-06T03:28:50;16.10;99.90
57843;DHT22;43673;51.058;3.734;2022-07-06T03:31:16;15.90;99.90
57843;DHT22;43673;51.058;3.734;2022-07-06T03:33:42;15.90;99.90
57843;DHT22;43673;51.058;3.734;2022-07-06T03:36:07;15.90;99.90
57843;DHT22;43673;51.058;3.734;2022-07-06T03:38:34;15.90;99.90
57843;DHT22;43673;51.058;3.734;2022-07-06T03:41:00;15.90;99.90
57843;DHT22;43673;51.058;3.734;2022-07-06T03:43:25;16.00;99.90
57843;DHT22;43673;51.058;3.734;2022-07-06T03:45:51;16.00;99.90
57843;DHT22;43673;51.058;3.734;2022-07-06T03:48:17;16.10;99.90
57843;DHT22;43673;51.058;3.734;2022-07-06T03:50:42;16.00;99.90
57843;DHT22;43673;51.058;3.734;2022-07-06T03:53:08;16.10;99.90
57843;DHT22;43673;51.058;3.734;2022-07-06T03:55:34;16.10;99.90
57843;DHT22;43673;51.058;3.734;2022-07-06T03:58:00;16.20;99.90
57843;DHT22;43673;51.058;3.734;2022-07-06T04:00:27;16.20;99.90
57843;DHT22;43673;51.058;3.734;2022-07-06T04:02:52;16.20;99.90
57843;DHT22;43673;51.058;3.734;2022-07-06T04:05:18;16.30;99.90
57843;DHT22;43673;51.058;3.734;2022-07-06T04:07:48;16.40;99.90
57843;DHT22;43673;51.058;3.734;2022-07-06T04:10:14;16.70;99.90
57843;DHT22;43673;51.058;3.734;2022-07-06T04:12:44;16.50;99.90
57843;DHT22;43673;51.058;3.734;2022-07-06T04:15:11;16.60;99.90
57843;DHT22;43673;51.058;3.734;2022-07-06T04:17:38;16.60;99.90
57843;DHT22;43673;51.058;3.734;2022-07-06T04:20:20;16.60;99.90
57843;DHT22;43673;51.058;3.734;2022-07-06T04:22:46;16.70;99.90
57843;DHT22;43673;51.058;3.734;2022-07-06T04:25:12;16.70;99.90
57843;DHT22;43673;51.058;3.734;2022-07-06T04:27:38;16.80;99.90
57843;DHT22;43673;51.058;3.734;2022-07-06T04:30:05;16.80;99.90
57843;DHT22;43673;51.058;3.734;2022-07-06T04:32:31;16.90;99.90
57843;DHT22;43673;51.058;3.734;2022-07-06T04:34:57;16.90;99.90
57843;DHT22;43673;51.058;3.734;2022-07-06T04:37:23;16.90;99.90
57843;DHT22;43673;51.058;3.734;2022-07-06T04:39:48;16.90;99.90
57843;DHT22;43673;51.058;3.734;2022-07-06T04:42:14;17.00;99.90
57843;DHT22;43673;51.058;3.734;2022-07-06T04:44:40;17.10;99.90
57843;DHT22;43673;51.058;3.734;2022-07-06T04:47:06;17.20;99.90
57843;DHT22;43673;51.058;3.734;2022-07-06T04:49:32;17.50;99.90
57843;DHT22;43673;51.058;3.734;2022-07-06T04:51:58;17.90;99.90
57843;DHT22;43673;51.058;3.734;2022-07-06T04:54:23;18.30;99.90
57843;DHT22;43673;51.058;3.734;2022-07-06T04:56:50;18.50;99.90
57843;DHT22;43673;51.058;3.734;2022-07-06T04:59:16;18.70;99.90
57843;DHT22;43673;51.058;3.734;2022-07-06T05:01:41;18.80;99.90
57843;DHT22;43673;51.058;3.734;2022-07-06T05:04:08;19.20;99.90
57843;DHT22;43673;51.058;3.734;2022-07-06T05:06:33;19.70;99.20
57843;DHT22;43673;51.058;3.734;2022-07-06T05:08:59;20.80;96.90
57843;DHT22;43673;51.058;3.734;2022-07-06T05:11:26;22.10;94.10
57843;DHT22;43673;51.058;3.734;2022-07-06T05:13:52;22.80;91.60
57843;DHT22;43673;51.058;3.734;2022-07-06T05:16:17;23.30;89.60
57843;DHT22;43673;51.058;3.734;2022-07-06T05:18:43;23.00;88.50
57843;DHT22;43673;51.058;3.734;2022-07-06T05:21:09;22.80;88.90
57843;DHT22;43673;51.058;3.734;2022-07-06T05:23:34;22.90;88.60
57843;DHT22;43673;51.058;3.734;2022-07-06T05:26:00;22.60;88.60
57843;DHT22;43673;51.058;3.734;2022-07-06T05:28:26;22.30;89.40
57843;DHT22;43673;51.058;3.734;2022-07-06T05:30:52;22.30;89.80
57843;DHT22;43673;51.058;3.734;2022-07-06T05:33:18;22.40;89.60
57843;DHT22;43673;51.058;3.734;2022-07-06T05:35:43;22.80;88.20
57843;DHT22;43673;51.058;3.734;2022-07-06T05:38:09;23.50;85.70
57843;DHT22;43673;51.058;3.734;2022-07-06T05:40:35;24.00;83.70
57843;DHT22;43673;51.058;3.734;2022-07-06T05:43:02;23.90;82.70
57843;DHT22;43673;51.058;3.734;2022-07-06T05:45:27;23.80;82.30
57843;DHT22;43673;51.058;3.734;2022-07-06T05:47:53;24.00;82.00
57843;DHT22;43673;51.058;3.734;2022-07-06T05:50:37;24.50;80.40
57843;DHT22;43673;51.058;3.734;2022-07-06T05:53:05;25.00;78.30
57843;DHT22;43673;51.058;3.734;2022-07-06T05:55:31;25.30;76.90
57843;DHT22;43673;51.058;3.734;2022-07-06T05:57:57;25.10;76.50
57843;DHT22;43673;51.058;3.734;2022-07-06T06:00:26;24.80;76.70
57843;DHT22;43673;51.058;3.734;2022-07-06T06:02:55;24.40;77.50
57843;DHT22;43673;51.058;3.734;2022-07-06T06:05:21;24.00;79.30
57843;DHT22;43673;51.058;3.734;2022-07-06T06:07:47;23.80;80.10
57843;DHT22;43673;51.058;3.734;2022-07-06T06:10:15;23.90;80.10
57843;DHT22;43673;51.058;3.734;2022-07-06T06:12:41;24.20;79.60
57843;DHT22;43673;51.058;3.734;2022-07-06T06:15:08;24.80;78.40
57843;DHT22;43673;51.058;3.734;2022-07-06T06:17:35;25.10;76.90
57843;DHT22;43673;51.058;3.734;2022-07-06T06:20:02;25.80;75.20
57843;DHT22;43673;51.058;3.734;2022-07-06T06:22:31;26.60;72.10
57843;DHT22;43673;51.058;3.734;2022-07-06T06:24:56;27.20;69.90
57843;DHT22;43673;51.058;3.734;2022-07-06T06:27:22;27.30;68.40
57843;DHT22;43673;51.058;3.734;2022-07-06T06:29:48;27.50;67.30
57843;DHT22;43673;51.058;3.734;2022-07-06T06:32:13;28.00;65.70
57843;DHT22;43673;51.058;3.734;2022-07-06T06:34:40;28.10;64.60
57843;DHT22;43673;51.058;3.734;2022-07-06T06:37:06;28.00;64.40
57843;DHT22;43673;51.058;3.734;2022-07-06T06:39:32;28.20;63.90
57843;DHT22;43673;51.058;3.734;2022-07-06T06:41:58;28.90;61.90
57843;DHT22;43673;51.058;3.734;2022-07-06T06:44:24;29.40;60.50
57843;DHT22;43673;51.058;3.734;2022-07-06T06:46:50;29.50;59.30
57843;DHT22;43673;51.058;3.734;2022-07-06T06:49:17;29.70;58.40
57843;DHT22;43673;51.058;3.734;2022-07-06T06:51:44;29.60;58.10
57843;DHT22;43673;51.058;3.734;2022-07-06T06:54:09;29.80;58.30
57843;DHT22;43673;51.058;3.734;2022-07-06T06:56:36;30.60;56.70
57843;DHT22;43673;51.058;3.734;2022-07-06T06:59:02;30.90;55.40
57843;DHT22;43673;51.058;3.734;2022-07-06T07:01:28;31.00;54.50
57843;DHT22;43673;51.058;3.734;2022-07-06T07:03:55;31.20;53.70
57843;DHT22;43673;51.058;3.734;2022-07-06T07:06:21;31.10;53.20
57843;DHT22;43673;51.058;3.734;2022-07-06T07:08:47;31.20;52.70
57843;DHT22;43673;51.058;3.734;2022-07-06T07:11:13;31.60;52.10
57843;DHT22;43673;51.058;3.734;2022-07-06T07:13:42;31.30;51.30
57843;DHT22;43673;51.058;3.734;2022-07-06T07:16:09;31.20;52.00
57843;DHT22;43673;51.058;3.734;2022-07-06T07:18:35;31.10;51.70
57843;DHT22;43673;51.058;3.734;2022-07-06T07:21:01;31.40;51.60
57843;DHT22;43673;51.058;3.734;2022-07-06T07:23:27;31.20;51.90
57843;DHT22;43673;51.058;3.734;2022-07-06T07:25:52;32.00;51.10
57843;DHT22;43673;51.058;3.734;2022-07-06T07:28:18;32.20;49.80
57843;DHT22;43673;51.058;3.734;2022-07-06T07:30:44;32.40;49.60
57843;DHT22;43673;51.058;3.734;2022-07-06T07:40:59;32.00;48.90
57843;DHT22;43673;51.058;3.734;2022-07-06T07:43:27;32.10;47.90
57843;DHT22;43673;51.058;3.734;2022-07-06T07:45:53;32.70;46.80
57843;DHT22;43673;51.058;3.734;2022-07-06T07:48:19;33.00;46.40
57843;DHT22;43673;51.058;3.734;2022-07-06T07:50:45;33.80;45.40
57843;DHT22;43673;51.058;3.734;2022-07-06T07:53:11;34.50;44.60
57843;DHT22;43673;51.058;3.734;2022-07-06T07:55:36;34.90;43.00
57843;DHT22;43673;51.058;3.734;2022-07-06T07:58:03;34.70;43.00
57843;DHT22;43673;51.058;3.734;2022-07-06T08:00:29;34.50;43.00
57843;DHT22;43673;51.058;3.734;2022-07-06T08:02:55;34.70;42.90
57843;DHT22;43673;51.058;3.734;2022-07-06T08:05:21;34.10;43.10
57843;DHT22;43673;51.058;3.734;2022-07-06T08:07:47;33.70;43.90
57843;DHT22;43673;51.058;3.734;2022-07-06T08:10:13;33.30;43.90
57843;DHT22;43673;51.058;3.734;2022-07-06T08:12:39;33.10;44.00
57843;DHT22;43673;51.058;3.734;2022-07-06T08:15:05;33.30;44.10
57843;DHT22;43673;51.058;3.734;2022-07-06T08:17:31;33.70;43.40
57843;DHT22;43673;51.058;3.734;2022-07-06T08:19:56;34.10;43.00
57843;DHT22;43673;51.058;3.734;2022-07-06T08:22:22;33.90;42.80
57843;DHT22;43673;51.058;3.734;2022-07-06T08:24:48;34.50;42.50
57843;DHT22;43673;51.058;3.734;2022-07-06T08:27:14;34.90;41.60
57843;DHT22;43673;51.058;3.734;2022-07-06T08:33:33;34.60;41.50
57843;DHT22;43673;51.058;3.734;2022-07-06T08:35:58;33.70;42.50
57843;DHT22;43673;51.058;3.734;2022-07-06T08:40:55;32.20;44.30
57843;DHT22;43673;51.058;3.734;2022-07-06T08:43:22;31.30;45.50
57843;DHT22;43673;51.058;3.734;2022-07-06T08:45:49;30.50;46.60
57843;DHT22;43673;51.058;3.734;2022-07-06T08:48:18;30.20;47.40
57843;DHT22;43673;51.058;3.734;2022-07-06T08:50:44;30.00;47.70
57843;DHT22;43673;51.058;3.734;2022-07-06T08:53:10;29.70;47.90
57843;DHT22;43673;51.058;3.734;2022-07-06T08:55:36;29.10;48.60
57843;DHT22;43673;51.058;3.734;2022-07-06T08:58:03;28.50;49.60
57843;DHT22;43673;51.058;3.734;2022-07-06T09:00:32;28.10;50.90
57843;DHT22;43673;51.058;3.734;2022-07-06T09:02:59;27.70;51.20
57843;DHT22;43673;51.058;3.734;2022-07-06T09:05:25;27.60;51.70
57843;DHT22;43673;51.058;3.734;2022-07-06T09:07:52;27.40;52.00
57843;DHT22;43673;51.058;3.734;2022-07-06T09:10:20;27.30;52.30
57843;DHT22;43673;51.058;3.734;2022-07-06T09:12:47;27.30;52.10
57843;DHT22;43673;51.058;3.734;2022-07-06T09:15:13;27.20;52.10
57843;DHT22;43673;51.058;3.734;2022-07-06T09:17:41;27.10;52.80
57843;DHT22;43673;51.058;3.734;2022-07-06T09:20:11;27.40;52.50
57843;DHT22;43673;51.058;3.734;2022-07-06T09:22:38;27.90;51.80
57843;DHT22;43673;51.058;3.734;2022-07-06T09:25:15;27.90;51.80
57843;DHT22;43673;51.058;3.734;2022-07-06T09:27:45;27.70;52.00
57843;DHT22;43673;51.058;3.734;2022-07-06T09:30:14;27.90;51.70
57843;DHT22;43673;51.058;3.734;2022-07-06T09:32:42;28.20;51.00
57843;DHT22;43673;51.058;3.734;2022-07-06T09:35:09;28.30;51.20
57843;DHT22;43673;51.058;3.734;2022-07-06T09:37:44;27.80;52.00
57843;DHT22;43673;51.058;3.734;2022-07-06T09:40:17;27.60;52.90
57843;DHT22;43673;51.058;3.734;2022-07-06T09:42:43;27.70;51.90
57843;DHT22;43673;51.058;3.734;2022-07-06T09:45:09;27.80;52.00
57843;DHT22;43673;51.058;3.734;2022-07-06T09:47:35;27.80;53.00
57843;DHT22;43673;51.058;3.734;2022-07-06T09:50:05;27.70;52.10
57843;DHT22;43673;51.058;3.734;2022-07-06T09:52:34;27.90;52.10
57843;DHT22;43673;51.058;3.734;2022-07-06T09:55:00;28.30;51.30
57843;DHT22;43673;51.058;3.734;2022-07-06T09:57:26;28.30;51.50
57843;DHT22;43673;51.058;3.734;2022-07-06T09:59:51;28.00;51.20
57843;DHT22;43673;51.058;3.734;2022-07-06T10:02:20;28.10;51.50
57843;DHT22;43673;51.058;3.734;2022-07-06T10:04:46;28.90;51.20
57843;DHT22;43673;51.058;3.734;2022-07-06T10:07:14;29.20;50.20
57843;DHT22;43673;51.058;3.734;2022-07-06T10:09:41;29.40;49.70
57843;DHT22;43673;51.058;3.734;2022-07-06T10:12:09;29.60;49.10
57843;DHT22;43673;51.058;3.734;2022-07-06T10:14:40;30.00;48.60
57843;DHT22;43673;51.058;3.734;2022-07-06T10:17:07;29.80;49.00
57843;DHT22;43673;51.058;3.734;2022-07-06T10:19:33;29.50;49.60
57843;DHT22;43673;51.058;3.734;2022-07-06T10:22:00;29.00;50.20
57843;DHT22;43673;51.058;3.734;2022-07-06T10:24:28;29.00;49.90
57843;DHT22;43673;51.058;3.734;2022-07-06T10:26:55;28.70;49.60
57843;DHT22;43673;51.058;3.734;2022-07-06T10:29:20;28.40;50.10
57843;DHT22;43673;51.058;3.734;2022-07-06T10:31:48;28.40;50.90
57843;DHT22;43673;51.058;3.734;2022-07-06T10:34:15;29.30;50.00
57843;DHT22;43673;51.058;3.734;2022-07-06T10:36:46;29.90;49.10
57843;DHT22;43673;51.058;3.734;2022-07-06T10:39:16;30.30;48.40
57843;DHT22;43673;51.058;3.734;2022-07-06T10:42:40;30.30;47.80
57843;DHT22;43673;51.058;3.734;2022-07-06T10:45:08;30.90;47.30
57843;DHT22;43673;51.058;3.734;2022-07-06T10:47:35;31.60;45.80
57843;DHT22;43673;51.058;3.734;2022-07-06T10:50:03;31.90;45.20
57843;DHT22;43673;51.058;3.734;2022-07-06T10:53:11;32.20;44.20
57843;DHT22;43673;51.058;3.734;2022-07-06T10:55:40;31.80;44.40
57843;DHT22;43673;51.058;3.734;2022-07-06T10:58:05;32.10;44.30
57843;DHT22;43673;51.058;3.734;2022-07-06T11:00:51;31.80;44.40
57843;DHT22;43673;51.058;3.734;2022-07-06T11:06:22;31.30;44.30
57843;DHT22;43673;51.058;3.734;2022-07-06T11:08:59;30.40;45.50
57843;DHT22;43673;51.058;3.734;2022-07-06T11:14:17;30.60;45.90
57843;DHT22;43673;51.058;3.734;2022-07-06T11:19:20;30.50;46.40
57843;DHT22;43673;51.058;3.734;2022-07-06T11:21:52;30.40;46.70
57843;DHT22;43673;51.058;3.734;2022-07-06T11:24:21;30.20;47.20
57843;DHT22;43673;51.058;3.734;2022-07-06T11:26:48;30.60;46.80
57843;DHT22;43673;51.058;3.734;2022-07-06T11:29:18;31.20;46.00
57843;DHT22;43673;51.058;3.734;2022-07-06T11:31:49;31.60;45.00
57843;DHT22;43673;51.058;3.734;2022-07-06T11:34:28;31.90;43.70
57843;DHT22;43673;51.058;3.734;2022-07-06T11:36:59;31.20;44.90
57843;DHT22;43673;51.058;3.734;2022-07-06T11:39:32;30.30;45.00
57843;DHT22;43673;51.058;3.734;2022-07-06T11:41:59;29.30;46.30
57843;DHT22;43673;51.058;3.734;2022-07-06T11:44:26;28.60;47.70
57843;DHT22;43673;51.058;3.734;2022-07-06T11:46:52;28.40;48.40
57843;DHT22;43673;51.058;3.734;2022-07-06T11:49:18;28.10;49.00
57843;DHT22;43673;51.058;3.734;2022-07-06T11:51:46;27.90;49.60
57843;DHT22;43673;51.058;3.734;2022-07-06T11:54:19;27.80;50.00
57843;DHT22;43673;51.058;3.734;2022-07-06T11:56:57;27.50;50.50
57843;DHT22;43673;51.058;3.734;2022-07-06T11:59:25;27.20;50.90
57843;DHT22;43673;51.058;3.734;2022-07-06T12:02:00;26.70;50.90
57843;DHT22;43673;51.058;3.734;2022-07-06T12:04:26;26.50;51.40
57843;DHT22;43673;51.058;3.734;2022-07-06T12:06:52;26.30;51.80
57843;DHT22;43673;51.058;3.734;2022-07-06T12:09:18;26.20;52.60
57843;DHT22;43673;51.058;3.734;2022-07-06T12:11:46;25.90;52.90
57843;DHT22;43673;51.058;3.734;2022-07-06T12:14:17;26.00;53.00
57843;DHT22;43673;51.058;3.734;2022-07-06T12:16:45;25.90;53.10
57843;DHT22;43673;51.058;3.734;2022-07-06T12:19:11;25.80;53.50
57843;DHT22;43673;51.058;3.734;2022-07-06T12:21:49;25.60;54.70
57843;DHT22;43673;51.058;3.734;2022-07-06T12:24:24;25.70;54.60
57843;DHT22;43673;51.058;3.734;2022-07-06T12:26:52;25.70;54.90
57843;DHT22;43673;51.058;3.734;2022-07-06T12:29:19;25.80;54.60
57843;DHT22;43673;51.058;3.734;2022-07-06T12:34:17;25.90;54.30
57843;DHT22;43673;51.058;3.734;2022-07-06T12:36:47;26.10;54.40
57843;DHT22;43673;51.058;3.734;2022-07-06T12:39:14;26.20;54.10
57843;DHT22;43673;51.058;3.734;2022-07-06T12:42:02;26.50;54.00
57843;DHT22;43673;51.058;3.734;2022-07-06T12:44:28;26.70;53.40
57843;DHT22;43673;51.058;3.734;2022-07-06T12:47:05;26.80;54.00
57843;DHT22;43673;51.058;3.734;2022-07-06T12:49:32;27.00;53.20
57843;DHT22;43673;51.058;3.734;2022-07-06T12:54:40;27.10;53.40
57843;DHT22;43673;51.058;3.734;2022-07-06T12:57:14;27.00;52.80
57843;DHT22;43673;51.058;3.734;2022-07-06T13:02:31;27.20;52.90
57843;DHT22;43673;51.058;3.734;2022-07-06T13:05:07;27.30;52.70
57843;DHT22;43673;51.058;3.734;2022-07-06T13:07:35;27.40;52.50
57843;DHT22;43673;51.058;3.734;2022-07-06T13:10:03;27.30;52.20
57843;DHT22;43673;51.058;3.734;2022-07-06T13:12:31;27.20;53.00
57843;DHT22;43673;51.058;3.734;2022-07-06T13:14:57;27.20;53.10
57843;DHT22;43673;51.058;3.734;2022-07-06T13:17:23;27.10;53.70
57843;DHT22;43673;51.058;3.734;2022-07-06T13:19:48;27.30;53.60
57843;DHT22;43673;51.058;3.734;2022-07-06T13:22:14;27.50;53.10
57843;DHT22;43673;51.058;3.734;2022-07-06T13:24:40;27.70;52.80
57843;DHT22;43673;51.058;3.734;2022-07-06T13:27:06;28.20;52.70
57843;DHT22;43673;51.058;3.734;2022-07-06T13:29:32;28.10;52.10
57843;DHT22;43673;51.058;3.734;2022-07-06T13:31:58;28.00;52.30
57843;DHT22;43673;51.058;3.734;2022-07-06T13:34:24;27.90;52.10
57843;DHT22;43673;51.058;3.734;2022-07-06T13:36:51;27.90;52.40
57843;DHT22;43673;51.058;3.734;2022-07-06T13:39:16;27.90;52.10
57843;DHT22;43673;51.058;3.734;2022-07-06T13:41:42;27.80;52.50
57843;DHT22;43673;51.058;3.734;2022-07-06T13:44:11;27.90;52.90
57843;DHT22;43673;51.058;3.734;2022-07-06T13:46:38;28.10;52.10
57843;DHT22;43673;51.058;3.734;2022-07-06T13:49:10;28.00;52.00
57843;DHT22;43673;51.058;3.734;2022-07-06T13:51:36;28.30;52.20
57843;DHT22;43673;51.058;3.734;2022-07-06T13:54:02;28.40;52.30
57843;DHT22;43673;51.058;3.734;2022-07-06T13:56:28;28.50;51.90
57843;DHT22;43673;51.058;3.734;2022-07-06T13:58:54;28.30;52.10
57843;DHT22;43673;51.058;3.734;2022-07-06T14:01:20;28.50;52.40
57843;DHT22;43673;51.058;3.734;2022-07-06T14:03:46;28.50;51.90
57843;DHT22;43673;51.058;3.734;2022-07-06T14:06:12;28.30;51.90
57843;DHT22;43673;51.058;3.734;2022-07-06T14:08:39;28.40;52.00
57843;DHT22;43673;51.058;3.734;2022-07-06T14:11:05;28.40;51.90
57843;DHT22;43673;51.058;3.734;2022-07-06T14:13:33;28.20;52.30
57843;DHT22;43673;51.058;3.734;2022-07-06T14:15:59;28.20;52.30
57843;DHT22;43673;51.058;3.734;2022-07-06T14:18:25;28.10;52.40
57843;DHT22;43673;51.058;3.734;2022-07-06T14:20:52;28.10;52.70
57843;DHT22;43673;51.058;3.734;2022-07-06T14:23:18;28.40;52.30
57843;DHT22;43673;51.058;3.734;2022-07-06T14:25:45;28.60;51.50
57843;DHT22;43673;51.058;3.734;2022-07-06T14:28:11;28.60;51.80
57843;DHT22;43673;51.058;3.734;2022-07-06T14:30:41;28.60;51.90
57843;DHT22;43673;51.058;3.734;2022-07-06T14:33:08;28.50;52.00
57843;DHT22;43673;51.058;3.734;2022-07-06T14:35:44;28.40;52.20
57843;DHT22;43673;51.058;3.734;2022-07-06T14:38:11;28.10;53.10
57843;DHT22;43673;51.058;3.734;2022-07-06T14:40:37;27.70;54.60
57843;DHT22;43673;51.058;3.734;2022-07-06T14:43:03;27.50;55.50
57843;DHT22;43673;51.058;3.734;2022-07-06T14:45:29;27.30;56.00
57843;DHT22;43673;51.058;3.734;2022-07-06T14:47:55;27.10;56.60
57843;DHT22;43673;51.058;3.734;2022-07-06T14:50:22;26.80;57.10
57843;DHT22;43673;51.058;3.734;2022-07-06T14:52:49;26.60;57.80
57843;DHT22;43673;51.058;3.734;2022-07-06T14:55:15;26.40;58.10
57843;DHT22;43673;51.058;3.734;2022-07-06T14:57:41;26.40;58.60
57843;DHT22;43673;51.058;3.734;2022-07-06T15:00:08;26.50;58.50
57843;DHT22;43673;51.058;3.734;2022-07-06T15:02:34;26.70;58.20
57843;DHT22;43673;51.058;3.734;2022-07-06T15:05:00;26.90;57.70
57843;DHT22;43673;51.058;3.734;2022-07-06T15:07:25;27.00;57.50
57843;DHT22;43673;51.058;3.734;2022-07-06T15:09:51;27.00;57.80
57843;DHT22;43673;51.058;3.734;2022-07-06T15:12:17;27.00;57.70
57843;DHT22;43673;51.058;3.734;2022-07-06T15:14:42;27.00;57.60
57843;DHT22;43673;51.058;3.734;2022-07-06T15:17:08;27.00;57.00
57843;DHT22;43673;51.058;3.734;2022-07-06T15:19:34;26.80;57.30
57843;DHT22;43673;51.058;3.734;2022-07-06T15:22:00;26.90;56.80
57843;DHT22;43673;51.058;3.734;2022-07-06T15:24:26;27.20;55.20
57843;DHT22;43673;51.058;3.734;2022-07-06T15:26:52;27.30;54.80
57843;DHT22;43673;51.058;3.734;2022-07-06T15:29:18;27.40;54.40
57843;DHT22;43673;51.058;3.734;2022-07-06T15:31:44;27.50;54.10
57843;DHT22;43673;51.058;3.734;2022-07-06T15:34:12;27.50;53.40
57843;DHT22;43673;51.058;3.734;2022-07-06T15:36:40;27.50;53.30
57843;DHT22;43673;51.058;3.734;2022-07-06T15:39:09;27.50;52.80
57843;DHT22;43673;51.058;3.734;2022-07-06T15:41:48;27.50;52.50
57843;DHT22;43673;51.058;3.734;2022-07-06T15:44:16;27.30;53.20
57843;DHT22;43673;51.058;3.734;2022-07-06T15:46:42;27.30;53.30
57843;DHT22;43673;51.058;3.734;2022-07-06T15:49:08;27.10;53.00
57843;DHT22;43673;51.058;3.734;2022-07-06T15:51:37;27.10;53.30
57843;DHT22;43673;51.058;3.734;2022-07-06T15:54:04;26.70;52.70
57843;DHT22;43673;51.058;3.734;2022-07-06T15:56:30;26.80;53.00
57843;DHT22;43673;51.058;3.734;2022-07-06T15:58:57;26.70;52.90
57843;DHT22;43673;51.058;3.734;2022-07-06T16:01:22;26.50;53.00
57843;DHT22;43673;51.058;3.734;2022-07-06T16:03:48;26.30;53.10
57843;DHT22;43673;51.058;3.734;2022-07-06T16:06:14;26.20;53.30
57843;DHT22;43673;51.058;3.734;2022-07-06T16:08:41;26.20;53.00